createdAt,value
2023-05-18T00:01:16.349Z,10.20
2023-05-18T00:03:43.094Z,10.30
2023-05-18T00:06:10.199Z,10.30
2023-05-18T00:08:37.900Z,10.40
2023-05-18T00:11:05.652Z,10.40
2023-05-18T00:13:32.850Z,10.30
2023-05-18T00:15:59.399Z,10.30
2023-05-18T00:18:27.274Z,10.30
2023-05-18T00:20:58.038Z,10.20
2023-05-18T00:23:32.320Z,10.20
2023-05-18T00:26:01.056Z,10.30
2023-05-18T00:28:28.562Z,10.30
2023-05-18T00:30:55.933Z,10.30
2023-05-18T00:33:23.060Z,10.30
2023-05-18T00:35:49.743Z,10.30
2023-05-18T00:38:16.513Z,10.20
2023-05-18T00:40:43.621Z,10.20
2023-05-18T00:43:10.300Z,10.10
2023-05-18T00:45:36.935Z,10.20
2023-05-18T00:48:03.912Z,10.30
2023-05-18T00:50:31.148Z,10.20
2023-05-18T00:52:58.172Z,10.20
2023-05-18T00:55:25.737Z,10.20
2023-05-18T00:57:55.609Z,10.30
2023-05-18T01:00:23.150Z,10.20
2023-05-18T01:02:50.234Z,10.20
2023-05-18T01:05:17.399Z,10.20
2023-05-18T01:07:44.228Z,10.20
2023-05-18T01:10:13.362Z,10.20
2023-05-18T01:13:05.157Z,10.30
2023-05-18T01:15:39.283Z,10.30
2023-05-18T01:18:39.140Z,10.30
2023-05-18T01:21:48.832Z,10.30
2023-05-18T01:24:42.105Z,10.30
2023-05-18T01:27:08.923Z,10.20
2023-05-18T01:29:36.559Z,10.20
2023-05-18T01:32:07.394Z,10.20
2023-05-18T01:34:33.980Z,10.20
2023-05-18T01:37:03.642Z,10.20
2023-05-18T01:39:30.243Z,10.20
2023-05-18T01:42:07.530Z,10.20
2023-05-18T01:44:45.379Z,10.20
2023-05-18T01:47:17.039Z,10.20
2023-05-18T01:50:08.364Z,10.20
2023-05-18T01:53:00.024Z,10.20
2023-05-18T01:55:31.281Z,10.30
2023-05-18T01:58:00.211Z,10.30
2023-05-18T02:00:26.900Z,10.20
2023-05-18T02:02:53.477Z,10.20
2023-05-18T02:05:20.280Z,10.20
2023-05-18T02:07:46.831Z,10.10
2023-05-18T02:10:13.755Z,10.10
2023-05-18T02:12:40.347Z,10.20
2023-05-18T02:15:07.963Z,10.20
2023-05-18T02:17:37.315Z,10.30
2023-05-18T02:20:09.349Z,10.20
2023-05-18T02:22:36.581Z,10.20
2023-05-18T02:25:04.467Z,10.20
2023-05-18T02:27:31.646Z,10.30
2023-05-18T02:29:58.573Z,10.30
2023-05-18T02:32:25.151Z,10.20
2023-05-18T02:34:53.079Z,10.20
2023-05-18T02:37:22.249Z,10.20
2023-05-18T02:39:49.241Z,10.10
2023-05-18T02:42:15.769Z,10.10
2023-05-18T02:44:43.024Z,10.10
2023-05-18T02:47:09.566Z,10.10
2023-05-18T02:49:36.138Z,10.10
2023-05-18T02:52:02.704Z,10.20
2023-05-18T02:54:29.188Z,10.20
2023-05-18T02:56:56.176Z,10.10
2023-05-18T02:59:22.764Z,10.10
2023-05-18T03:01:50.170Z,10.10
2023-05-18T03:04:16.867Z,10.10
2023-05-18T03:06:45.815Z,10.00
2023-05-18T03:09:12.373Z,9.90
2023-05-18T03:11:38.892Z,9.90
2023-05-18T03:14:05.408Z,10.00
2023-05-18T03:16:32.107Z,10.00
2023-05-18T03:19:00.882Z,10.00
2023-05-18T03:21:32.738Z,10.00
2023-05-18T03:24:05.593Z,10.00
2023-05-18T03:26:32.168Z,10.00
2023-05-18T03:28:59.029Z,9.90
2023-05-18T03:31:26.001Z,9.90
2023-05-18T03:33:52.563Z,9.80
2023-05-18T03:36:21.698Z,9.80
2023-05-18T03:38:48.215Z,9.80
2023-05-18T03:41:14.783Z,9.80
2023-05-18T03:43:41.326Z,9.70
2023-05-18T03:46:07.838Z,9.70
2023-05-18T03:48:34.390Z,9.60
2023-05-18T03:51:00.973Z,9.60
2023-05-18T03:53:28.760Z,9.70
2023-05-18T03:55:56.143Z,9.70
2023-05-18T03:58:22.770Z,9.70
2023-05-18T04:00:49.373Z,9.60
2023-05-18T04:03:15.993Z,9.70
2023-05-18T04:05:45.599Z,9.80
2023-05-18T04:08:14.940Z,9.80
2023-05-18T04:10:45.318Z,9.90
2023-05-18T04:13:12.018Z,9.90
2023-05-18T04:15:38.613Z,10.00
2023-05-18T04:18:05.300Z,10.10
2023-05-18T04:20:31.960Z,10.10
2023-05-18T04:22:58.477Z,10.10
2023-05-18T04:25:27.184Z,10.10
2023-05-18T04:27:55.205Z,10.20
2023-05-18T04:30:22.719Z,10.30
2023-05-18T04:32:50.207Z,10.40
2023-05-18T04:35:17.765Z,10.50
2023-05-18T04:37:44.323Z,10.50
2023-05-18T04:40:14.496Z,10.50
2023-05-18T04:42:44.700Z,10.60
2023-05-18T04:45:15.601Z,10.80
2023-05-18T04:47:46.859Z,10.90
2023-05-18T04:50:17.356Z,11.10
2023-05-18T04:52:47.992Z,11.20
2023-05-18T04:55:25.326Z,11.50
2023-05-18T04:57:55.650Z,11.60
2023-05-18T05:00:24.181Z,11.70
2023-05-18T05:02:50.852Z,11.70
2023-05-18T05:05:18.199Z,11.70
2023-05-18T05:07:44.988Z,11.70
2023-05-18T05:10:11.639Z,11.70
2023-05-18T05:12:38.476Z,11.70
2023-05-18T05:15:06.037Z,11.80
2023-05-18T05:17:32.806Z,11.90
2023-05-18T05:19:59.391Z,11.90
2023-05-18T05:22:26.110Z,12.00
2023-05-18T05:24:52.750Z,12.10
2023-05-18T05:27:19.354Z,12.20
2023-05-18T05:29:46.799Z,12.30
2023-05-18T05:32:13.370Z,12.30
2023-05-18T05:34:40.374Z,12.30
2023-05-18T05:37:07.104Z,12.40
2023-05-18T05:39:33.776Z,12.40
2023-05-18T05:42:00.321Z,12.50
2023-05-18T05:44:26.840Z,12.50
2023-05-18T05:46:53.385Z,12.60
2023-05-18T05:49:19.919Z,12.70
2023-05-18T05:51:46.484Z,12.90
2023-05-18T05:54:13.030Z,13.00
2023-05-18T05:56:39.690Z,13.00
2023-05-18T05:59:10.925Z,13.20
2023-05-18T06:01:37.488Z,13.30
2023-05-18T06:04:05.764Z,13.30
2023-05-18T06:06:32.556Z,13.40
2023-05-18T06:08:59.145Z,13.50
2023-05-18T06:11:26.035Z,13.60
2023-05-18T06:13:52.590Z,13.70
2023-05-18T06:16:19.159Z,13.90
2023-05-18T06:18:45.748Z,14.00
2023-05-18T06:21:12.370Z,14.20
2023-05-18T06:23:41.672Z,14.40
2023-05-18T06:26:08.559Z,14.50
2023-05-18T06:28:35.087Z,14.70
2023-05-18T06:31:01.905Z,14.90
2023-05-18T06:33:28.471Z,15.10
2023-05-18T06:35:55.354Z,15.10
2023-05-18T06:38:21.942Z,15.30
2023-05-18T06:40:49.173Z,15.50
2023-05-18T06:43:15.764Z,15.80
2023-05-18T06:45:42.400Z,16.00
2023-05-18T06:48:08.977Z,16.40
2023-05-18T06:50:35.563Z,16.80
2023-05-18T06:53:02.345Z,17.00
2023-05-18T06:55:29.077Z,17.30
2023-05-18T06:57:57.562Z,17.50
2023-05-18T07:00:24.468Z,17.40
2023-05-18T07:02:51.036Z,17.60
2023-05-18T07:05:17.697Z,17.60
2023-05-18T07:07:44.270Z,17.60
2023-05-18T07:10:10.907Z,17.60
2023-05-18T07:12:37.446Z,17.50
2023-05-18T07:15:04.953Z,17.60
2023-05-18T07:17:31.536Z,17.60
2023-05-18T07:19:58.092Z,17.80
2023-05-18T07:22:24.670Z,18.00
2023-05-18T07:24:51.204Z,18.40
2023-05-18T07:27:17.736Z,18.50
2023-05-18T07:29:44.296Z,18.80
2023-05-18T07:32:10.816Z,19.00
2023-05-18T07:34:37.716Z,18.90
2023-05-18T07:37:04.507Z,18.80
2023-05-18T07:39:31.048Z,18.70
2023-05-18T07:41:59.104Z,18.60
2023-05-18T07:44:25.674Z,18.70
2023-05-18T07:46:52.364Z,18.60
2023-05-18T07:49:19.000Z,18.70
2023-05-18T07:51:45.524Z,18.80
2023-05-18T07:54:12.133Z,18.90
2023-05-18T07:56:45.124Z,19.10
2023-05-18T07:59:11.747Z,19.20
2023-05-18T08:01:39.157Z,19.10
2023-05-18T08:04:05.985Z,19.00
2023-05-18T08:06:32.736Z,18.50
2023-05-18T08:08:59.280Z,18.20
2023-05-18T08:11:25.820Z,18.40
2023-05-18T08:13:52.354Z,18.60
2023-05-18T08:16:18.914Z,18.80
2023-05-18T08:18:45.529Z,19.00
2023-05-18T08:21:12.104Z,19.00
2023-05-18T08:23:39.150Z,19.10
2023-05-18T08:26:07.396Z,19.30
2023-05-18T08:28:34.238Z,19.30
2023-05-18T08:31:00.760Z,19.30
2023-05-18T08:33:27.307Z,19.40
2023-05-18T08:35:53.888Z,19.20
2023-05-18T08:38:20.530Z,19.00
2023-05-18T08:41:01.797Z,19.20
2023-05-18T08:43:32.636Z,19.00
2023-05-18T08:46:27.868Z,18.90
2023-05-18T08:49:18.068Z,19.00
2023-05-18T08:51:56.545Z,19.40
2023-05-18T08:54:24.436Z,19.40
2023-05-18T08:56:52.953Z,19.80
2023-05-18T08:59:25.952Z,19.90
2023-05-18T09:01:54.388Z,20.00
2023-05-18T09:04:21.909Z,20.20
2023-05-18T09:06:50.804Z,20.20
2023-05-18T09:09:18.386Z,20.20
2023-05-18T09:11:47.560Z,20.30
2023-05-18T09:14:14.157Z,20.30
2023-05-18T09:16:40.838Z,20.30
2023-05-18T09:19:07.549Z,20.30
2023-05-18T09:21:34.322Z,20.10
2023-05-18T09:24:00.972Z,20.30
2023-05-18T09:26:27.523Z,20.20
2023-05-18T09:28:54.367Z,20.30
2023-05-18T09:31:23.772Z,20.20
2023-05-18T09:33:50.975Z,20.20
2023-05-18T09:36:24.015Z,20.30
2023-05-18T09:38:52.555Z,20.20
2023-05-18T09:41:19.255Z,20.10
2023-05-18T09:43:48.210Z,19.80
2023-05-18T09:46:15.018Z,19.70
2023-05-18T09:48:46.476Z,19.60
2023-05-18T09:51:15.803Z,19.70
2023-05-18T09:54:15.521Z,19.90
2023-05-18T09:56:52.281Z,20.10
2023-05-18T09:59:25.165Z,20.10
2023-05-18T10:02:08.063Z,20.20
2023-05-18T10:04:43.084Z,20.30
2023-05-18T10:07:15.389Z,20.10
2023-05-18T10:09:45.847Z,20.10
2023-05-18T10:12:20.518Z,20.30
2023-05-18T10:14:49.101Z,20.30
2023-05-18T10:17:17.188Z,20.50
2023-05-18T10:19:46.206Z,20.60
2023-05-18T10:22:20.203Z,20.70
2023-05-18T10:24:51.968Z,20.70
2023-05-18T10:27:26.769Z,20.70
2023-05-18T10:29:57.191Z,20.70
2023-05-18T10:32:25.587Z,20.70
2023-05-18T10:34:56.619Z,20.70
2023-05-18T10:37:25.835Z,21.00
2023-05-18T10:39:55.215Z,21.20
2023-05-18T10:42:24.851Z,21.10
2023-05-18T10:44:53.608Z,21.10
2023-05-18T10:47:21.333Z,21.00
2023-05-18T10:49:49.310Z,21.20
2023-05-18T10:52:20.865Z,21.30
2023-05-18T10:54:47.824Z,21.20
2023-05-18T10:57:19.268Z,21.00
2023-05-18T10:59:48.396Z,21.10
2023-05-18T11:02:18.560Z,21.10
2023-05-18T11:04:47.199Z,21.10
2023-05-18T11:07:14.895Z,21.00
2023-05-18T11:09:43.805Z,21.10
2023-05-18T11:12:17.085Z,21.20
2023-05-18T11:14:56.754Z,21.10
2023-05-18T11:17:29.297Z,21.10
2023-05-18T11:20:56.277Z,21.10
2023-05-18T11:23:23.977Z,21.20
2023-05-18T11:25:53.599Z,21.30
2023-05-18T11:28:22.500Z,21.40
2023-05-18T11:30:50.724Z,21.30
2023-05-18T11:33:32.052Z,21.30
2023-05-18T11:36:12.910Z,21.40
2023-05-18T11:39:04.013Z,21.40
2023-05-18T11:41:46.072Z,21.50
2023-05-18T11:44:22.733Z,21.40
2023-05-18T11:47:04.191Z,21.30
2023-05-18T11:49:50.206Z,21.20
2023-05-18T11:52:24.557Z,21.20
2023-05-18T11:55:00.945Z,21.00
2023-05-18T11:57:40.114Z,20.90
2023-05-18T12:00:11.095Z,20.80
2023-05-18T12:02:38.463Z,20.80
2023-05-18T12:05:09.284Z,20.80
2023-05-18T12:07:38.565Z,20.70
2023-05-18T12:10:11.696Z,20.60
2023-05-18T12:12:39.290Z,20.50
2023-05-18T12:15:08.935Z,20.40
2023-05-18T12:17:47.197Z,20.40
2023-05-18T12:20:20.286Z,20.20
2023-05-18T12:22:49.595Z,20.10
2023-05-18T12:25:16.219Z,20.00
2023-05-18T12:27:45.411Z,20.00
2023-05-18T12:30:33.685Z,19.90
2023-05-18T12:33:04.453Z,19.90
2023-05-18T12:35:32.679Z,20.00
2023-05-18T12:38:00.701Z,20.00
2023-05-18T12:40:45.642Z,20.20
2023-05-18T12:43:12.540Z,20.30
2023-05-18T12:45:40.215Z,20.40
2023-05-18T12:48:12.324Z,20.50
2023-05-18T12:50:51.254Z,20.50
2023-05-18T12:53:18.425Z,20.40
2023-05-18T12:55:45.247Z,20.40
2023-05-18T12:58:15.927Z,20.30
2023-05-18T13:00:47.415Z,20.20
2023-05-18T13:03:21.088Z,20.20
2023-05-18T13:06:07.755Z,20.10
2023-05-18T13:08:36.305Z,20.20
2023-05-18T13:11:13.422Z,20.00
2023-05-18T13:14:02.550Z,19.90
2023-05-18T13:16:29.491Z,19.90
2023-05-18T13:19:00.852Z,19.90
2023-05-18T13:21:28.198Z,19.90
2023-05-18T13:23:54.814Z,19.90
2023-05-18T13:26:23.284Z,19.90
2023-05-18T13:28:54.374Z,20.00
2023-05-18T13:31:21.759Z,20.00
2023-05-18T13:33:49.991Z,20.00
2023-05-18T13:36:18.011Z,20.10
2023-05-18T13:38:44.591Z,20.20
2023-05-18T13:41:14.172Z,20.20
2023-05-18T13:43:41.901Z,20.30
2023-05-18T13:46:08.515Z,20.30
2023-05-18T13:48:35.046Z,20.40
2023-05-18T13:51:01.661Z,20.40
2023-05-18T13:53:28.356Z,20.30
2023-05-18T13:55:55.035Z,20.00
2023-05-18T13:58:23.067Z,20.00
2023-05-18T14:00:49.631Z,19.90
2023-05-18T14:03:16.787Z,19.80
2023-05-18T14:05:43.360Z,19.60
2023-05-18T14:08:09.907Z,19.40
2023-05-18T14:10:36.520Z,19.30
2023-05-18T14:13:03.062Z,19.10
2023-05-18T14:15:29.570Z,18.90
2023-05-18T14:17:56.237Z,18.80
2023-05-18T14:20:22.914Z,18.70
2023-05-18T14:22:49.503Z,18.70
2023-05-18T14:25:16.371Z,18.60
2023-05-18T14:27:42.902Z,18.50
2023-05-18T14:30:09.737Z,18.40
2023-05-18T14:32:36.554Z,18.50
2023-05-18T14:35:03.566Z,18.40
2023-05-18T14:37:30.196Z,18.40
2023-05-18T14:39:56.727Z,18.40
2023-05-18T14:42:23.261Z,18.50
2023-05-18T14:44:49.802Z,18.60
2023-05-18T14:47:17.188Z,18.60
2023-05-18T14:49:43.706Z,18.60
2023-05-18T14:52:10.563Z,18.60
2023-05-18T14:54:37.082Z,18.80
2023-05-18T14:57:03.912Z,18.90
2023-05-18T14:59:30.460Z,18.90
2023-05-18T15:01:57.037Z,19.00
2023-05-18T15:04:24.956Z,18.90
2023-05-18T15:06:51.654Z,18.80
2023-05-18T15:09:18.205Z,18.90
2023-05-18T15:11:45.755Z,18.80
2023-05-18T15:14:12.269Z,18.90
2023-05-18T15:16:39.006Z,18.90
2023-05-18T15:19:05.789Z,18.80
2023-05-18T15:21:32.399Z,18.60
2023-05-18T15:23:59.012Z,18.60
2023-05-18T15:26:25.962Z,18.40
2023-05-18T15:28:52.510Z,18.20
2023-05-18T15:31:19.067Z,18.10
2023-05-18T15:33:45.720Z,18.10
2023-05-18T15:36:12.278Z,18.00
2023-05-18T15:38:38.837Z,18.00
2023-05-18T15:41:05.396Z,18.00
2023-05-18T15:43:32.924Z,18.00
2023-05-18T15:46:00.012Z,17.90
2023-05-18T15:48:26.570Z,17.80
2023-05-18T15:50:53.099Z,17.80
2023-05-18T15:53:20.015Z,17.80
2023-05-18T15:55:48.456Z,17.70
2023-05-18T15:58:15.440Z,17.60
2023-05-18T16:00:41.983Z,17.60
2023-05-18T16:03:08.849Z,17.50
2023-05-18T16:05:35.539Z,17.40
2023-05-18T16:08:02.123Z,17.30
2023-05-18T16:10:28.665Z,17.30
2023-05-18T16:12:55.273Z,17.30
2023-05-18T16:15:23.914Z,17.20
2023-05-18T16:17:50.487Z,17.10
2023-05-18T16:20:17.767Z,17.00
2023-05-18T16:22:46.028Z,16.90
2023-05-18T16:25:12.552Z,17.00
2023-05-18T16:27:39.079Z,16.90
2023-05-18T16:30:07.032Z,16.90
2023-05-18T16:32:33.701Z,16.90
2023-05-18T16:35:00.379Z,16.80
2023-05-18T16:37:27.075Z,16.80
2023-05-18T16:39:53.654Z,16.70
2023-05-18T16:42:21.600Z,16.70
2023-05-18T16:44:48.138Z,16.60
2023-05-18T16:47:14.672Z,16.50
2023-05-18T16:49:44.495Z,16.40
2023-05-18T16:52:11.258Z,16.40
2023-05-18T16:54:37.811Z,16.40
2023-05-18T16:57:05.452Z,16.40
2023-05-18T16:59:33.582Z,16.40
2023-05-18T17:02:00.709Z,16.40
2023-05-18T17:04:27.270Z,16.30
2023-05-18T17:06:53.807Z,16.30
2023-05-18T17:09:20.353Z,16.30
2023-05-18T17:11:47.684Z,16.20
2023-05-18T17:14:14.422Z,16.20
2023-05-18T17:16:41.051Z,16.30
2023-05-18T17:19:07.988Z,16.20
2023-05-18T17:21:34.722Z,16.20
2023-05-18T17:24:01.272Z,16.20
2023-05-18T17:26:29.845Z,16.20
2023-05-18T17:28:56.665Z,16.20
2023-05-18T17:31:23.276Z,16.10
2023-05-18T17:33:49.918Z,16.10
2023-05-18T17:36:17.422Z,16.00
2023-05-18T17:38:47.038Z,16.00
2023-05-18T17:41:13.694Z,15.90
2023-05-18T17:43:40.294Z,15.90
2023-05-18T17:46:06.907Z,15.80
2023-05-18T17:48:33.478Z,15.80
2023-05-18T17:51:00.040Z,15.80
2023-05-18T17:53:26.598Z,15.70
2023-05-18T17:55:53.136Z,15.70
2023-05-18T17:58:19.672Z,15.70
2023-05-18T18:00:46.244Z,15.60
2023-05-18T18:03:13.241Z,15.60
2023-05-18T18:05:39.947Z,15.60
2023-05-18T18:08:06.492Z,15.50
2023-05-18T18:10:33.443Z,15.50
2023-05-18T18:13:00.153Z,15.40
2023-05-18T18:15:28.123Z,15.40
2023-05-18T18:17:55.899Z,15.40
2023-05-18T18:20:22.724Z,15.40
2023-05-18T18:22:49.281Z,15.50
2023-05-18T18:25:15.863Z,15.40
2023-05-18T18:27:42.468Z,15.40
2023-05-18T18:30:10.027Z,15.40
2023-05-18T18:32:36.584Z,15.30
2023-05-18T18:35:03.616Z,15.30
2023-05-18T18:37:30.232Z,15.20
2023-05-18T18:39:56.766Z,15.10
2023-05-18T18:42:23.430Z,15.10
2023-05-18T18:44:52.093Z,15.10
2023-05-18T18:47:18.726Z,15.10
2023-05-18T18:49:45.278Z,15.00
2023-05-18T18:52:13.638Z,14.90
2023-05-18T18:54:40.508Z,14.90
2023-05-18T18:57:11.277Z,14.90
2023-05-18T18:59:38.393Z,14.80
2023-05-18T19:02:05.102Z,14.80
2023-05-18T19:04:31.810Z,14.70
2023-05-18T19:07:01.983Z,14.70
2023-05-18T19:09:31.939Z,14.80
2023-05-18T19:11:58.785Z,14.70
2023-05-18T19:14:25.334Z,14.60
2023-05-18T19:16:51.958Z,14.60
2023-05-18T19:19:18.524Z,14.60
2023-05-18T19:21:46.163Z,14.60
2023-05-18T19:24:12.799Z,14.60
2023-05-18T19:26:39.329Z,14.60
2023-05-18T19:29:05.861Z,14.60
2023-05-18T19:31:33.718Z,14.60
2023-05-18T19:34:00.519Z,14.40
2023-05-18T19:36:27.547Z,14.40
2023-05-18T19:38:55.090Z,14.30
2023-05-18T19:41:23.137Z,14.30
2023-05-18T19:43:51.127Z,14.20
2023-05-18T19:46:19.118Z,14.20
2023-05-18T19:48:45.967Z,14.20
2023-05-18T19:51:12.513Z,14.20
2023-05-18T19:53:42.684Z,14.20
2023-05-18T19:56:09.253Z,14.10
2023-05-18T19:58:35.839Z,14.10
2023-05-18T20:01:02.544Z,14.10
2023-05-18T20:03:29.165Z,14.10
2023-05-18T20:05:56.016Z,14.10
2023-05-18T20:08:22.586Z,14.10
2023-05-18T20:10:49.250Z,14.10
2023-05-18T20:13:15.808Z,14.10
2023-05-18T20:15:42.951Z,14.00
2023-05-18T20:18:09.513Z,14.10
2023-05-18T20:20:36.929Z,14.10
2023-05-18T20:23:05.896Z,14.10
2023-05-18T20:25:35.611Z,14.00
2023-05-18T20:28:06.557Z,14.10
2023-05-18T20:30:33.993Z,14.00
2023-05-18T20:33:03.088Z,14.00
2023-05-18T20:35:29.660Z,13.90
2023-05-18T20:37:58.765Z,13.90
2023-05-18T20:40:29.909Z,13.90
2023-05-18T20:42:57.789Z,13.90
2023-05-18T20:45:25.196Z,13.90
2023-05-18T20:47:52.274Z,13.90
2023-05-18T20:50:20.475Z,13.90
2023-05-18T20:52:47.319Z,13.90
2023-05-18T20:55:14.056Z,13.90
2023-05-18T20:57:44.019Z,13.90
2023-05-18T21:00:12.896Z,13.90
2023-05-18T21:02:45.267Z,13.90
2023-05-18T21:05:12.690Z,13.90
2023-05-18T21:07:39.705Z,13.90
2023-05-18T21:10:10.832Z,13.90
2023-05-18T21:12:37.968Z,13.80
2023-05-18T21:15:05.423Z,13.80
2023-05-18T21:17:32.127Z,13.80
2023-05-18T21:19:58.886Z,13.80
2023-05-18T21:22:25.454Z,13.90
2023-05-18T21:24:52.044Z,13.80
2023-05-18T21:27:18.652Z,13.80
2023-05-18T21:29:45.206Z,13.70
2023-05-18T21:32:11.985Z,13.70
2023-05-18T21:34:39.609Z,13.70
2023-05-18T21:37:07.742Z,13.70
2023-05-18T21:39:34.367Z,13.60
2023-05-18T21:42:01.825Z,13.60
2023-05-18T21:44:28.405Z,13.60
2023-05-18T21:46:57.109Z,13.60
2023-05-18T21:49:23.619Z,13.60
2023-05-18T21:51:50.318Z,13.60
2023-05-18T21:54:16.828Z,13.60
2023-05-18T21:56:43.381Z,13.60
2023-05-18T21:59:09.930Z,13.60
2023-05-18T22:01:36.555Z,13.60
2023-05-18T22:04:03.269Z,13.60
2023-05-18T22:06:30.406Z,13.60
2023-05-18T22:08:56.950Z,13.50
2023-05-18T22:11:23.821Z,13.60
2023-05-18T22:13:50.801Z,13.60
2023-05-18T22:16:17.396Z,13.60
2023-05-18T22:18:43.996Z,13.50
2023-05-18T22:21:10.571Z,13.60
2023-05-18T22:23:38.418Z,13.50
2023-05-18T22:26:05.082Z,13.50
2023-05-18T22:28:31.590Z,13.50
2023-05-18T22:30:58.105Z,13.50
2023-05-18T22:33:24.846Z,13.50
2023-05-18T22:35:51.419Z,13.60
2023-05-18T22:38:18.001Z,13.50
2023-05-18T22:40:44.927Z,13.50
2023-05-18T22:43:11.660Z,13.40
2023-05-18T22:45:38.236Z,13.40
2023-05-18T22:48:05.120Z,13.30
2023-05-18T22:50:32.044Z,13.30
2023-05-18T22:52:58.735Z,13.30
2023-05-18T22:55:25.286Z,13.30
2023-05-18T22:57:51.823Z,13.30
2023-05-18T23:00:18.503Z,13.30
2023-05-18T23:02:45.629Z,13.30
2023-05-18T23:05:13.765Z,13.30
2023-05-18T23:07:41.064Z,13.30
2023-05-18T23:10:13.270Z,13.20
2023-05-18T23:12:40.842Z,13.20
2023-05-18T23:15:08.450Z,13.20
2023-05-18T23:17:38.157Z,13.30
2023-05-18T23:20:09.714Z,13.30
2023-05-18T23:22:36.267Z,13.20
2023-05-18T23:25:07.736Z,13.20
2023-05-18T23:27:34.893Z,13.30
2023-05-18T23:30:01.420Z,13.30
2023-05-18T23:32:28.801Z,13.20
2023-05-18T23:34:57.046Z,13.20
2023-05-18T23:37:25.366Z,13.30
2023-05-18T23:39:52.674Z,13.30
2023-05-18T23:42:20.498Z,13.20
2023-05-18T23:44:48.147Z,13.10
2023-05-18T23:47:15.729Z,13.00
2023-05-18T23:49:44.200Z,13.00
2023-05-18T23:52:12.844Z,13.10
2023-05-18T23:54:40.455Z,13.10
2023-05-18T23:57:08.142Z,13.10
2023-05-18T23:59:35.782Z,12.90
